sensor_id;sensor_type;location;lat;lon;timestamp;P1;durP1;ratioP1;P2;durP2;ratioP2
823;SDS011;373;49.342;8.146;2024-01-07T00:02:08;5.07;;;4.15;;
823;SDS011;373;49.342;8.146;2024-01-07T00:04:35;4.90;;;4.50;;
823;SDS011;373;49.342;8.146;2024-01-07T00:07:03;4.63;;;4.22;;
823;SDS011;373;49.342;8.146;2024-01-07T00:09:32;4.15;;;3.78;;
823;SDS011;373;49.342;8.146;2024-01-07T00:11:59;4.50;;;4.05;;
823;SDS011;373;49.342;8.146;2024-01-07T00:14:26;4.93;;;4.40;;
823;SDS011;373;49.342;8.146;2024-01-07T00:16:53;4.78;;;3.95;;
823;SDS011;373;49.342;8.146;2024-01-07T00:19:20;4.30;;;3.85;;
823;SDS011;373;49.342;8.146;2024-01-07T00:21:47;4.55;;;4.15;;
823;SDS011;373;49.342;8.146;2024-01-07T00:24:15;4.30;;;3.90;;
823;SDS011;373;49.342;8.146;2024-01-07T00:26:43;6.00;;;4.40;;
823;SDS011;373;49.342;8.146;2024-01-07T00:29:10;5.55;;;4.60;;
823;SDS011;373;49.342;8.146;2024-01-07T00:31:39;5.45;;;4.85;;
823;SDS011;373;49.342;8.146;2024-01-07T00:34:06;4.50;;;4.03;;
823;SDS011;373;49.342;8.146;2024-01-07T00:36:33;5.25;;;4.72;;
823;SDS011;373;49.342;8.146;2024-01-07T00:39:00;5.75;;;5.25;;
823;SDS011;373;49.342;8.146;2024-01-07T00:41:27;5.03;;;4.55;;
823;SDS011;373;49.342;8.146;2024-01-07T00:43:56;5.57;;;4.97;;
823;SDS011;373;49.342;8.146;2024-01-07T00:46:23;5.53;;;4.90;;
823;SDS011;373;49.342;8.146;2024-01-07T00:48:50;4.88;;;4.38;;
823;SDS011;373;49.342;8.146;2024-01-07T00:51:17;4.85;;;4.35;;
823;SDS011;373;49.342;8.146;2024-01-07T00:53:44;4.95;;;4.40;;
823;SDS011;373;49.342;8.146;2024-01-07T00:56:11;4.93;;;4.25;;
823;SDS011;373;49.342;8.146;2024-01-07T00:58:38;5.20;;;4.63;;
823;SDS011;373;49.342;8.146;2024-01-07T01:01:07;5.22;;;4.60;;
823;SDS011;373;49.342;8.146;2024-01-07T01:03:35;4.65;;;4.25;;
823;SDS011;373;49.342;8.146;2024-01-07T01:06:03;5.07;;;4.57;;
823;SDS011;373;49.342;8.146;2024-01-07T01:08:30;5.18;;;4.68;;
823;SDS011;373;49.342;8.146;2024-01-07T01:10:57;5.72;;;4.85;;
823;SDS011;373;49.342;8.146;2024-01-07T01:13:24;5.85;;;4.90;;
823;SDS011;373;49.342;8.146;2024-01-07T01:15:51;5.85;;;5.07;;
823;SDS011;373;49.342;8.146;2024-01-07T01:18:21;8.45;;;4.97;;
823;SDS011;373;49.342;8.146;2024-01-07T01:20:48;6.45;;;5.38;;
823;SDS011;373;49.342;8.146;2024-01-07T01:23:16;7.10;;;5.90;;
823;SDS011;373;49.342;8.146;2024-01-07T01:25:43;5.28;;;4.63;;
823;SDS011;373;49.342;8.146;2024-01-07T01:28:10;5.00;;;4.50;;
823;SDS011;373;49.342;8.146;2024-01-07T01:30:37;5.68;;;5.10;;
823;SDS011;373;49.342;8.146;2024-01-07T01:33:04;5.68;;;4.93;;
823;SDS011;373;49.342;8.146;2024-01-07T01:35:32;5.72;;;5.10;;
823;SDS011;373;49.342;8.146;2024-01-07T01:37:59;6.32;;;4.97;;
823;SDS011;373;49.342;8.146;2024-01-07T01:40:27;6.28;;;4.63;;
823;SDS011;373;49.342;8.146;2024-01-07T01:42:54;4.97;;;4.45;;
823;SDS011;373;49.342;8.146;2024-01-07T01:45:21;5.78;;;4.72;;
823;SDS011;373;49.342;8.146;2024-01-07T01:47:48;5.90;;;5.20;;
823;SDS011;373;49.342;8.146;2024-01-07T01:50:16;6.15;;;5.57;;
823;SDS011;373;49.342;8.146;2024-01-07T01:52:45;6.03;;;5.10;;
823;SDS011;373;49.342;8.146;2024-01-07T01:55:13;6.18;;;4.65;;
823;SDS011;373;49.342;8.146;2024-01-07T01:57:40;5.28;;;4.78;;
823;SDS011;373;49.342;8.146;2024-01-07T02:00:08;5.38;;;4.55;;
823;SDS011;373;49.342;8.146;2024-01-07T02:02:36;4.72;;;4.25;;
823;SDS011;373;49.342;8.146;2024-01-07T02:05:03;4.90;;;4.40;;
823;SDS011;373;49.342;8.146;2024-01-07T02:07:31;5.38;;;4.72;;
823;SDS011;373;49.342;8.146;2024-01-07T02:10:00;5.72;;;4.93;;
823;SDS011;373;49.342;8.146;2024-01-07T02:12:27;5.07;;;4.57;;
823;SDS011;373;49.342;8.146;2024-01-07T02:14:54;6.57;;;4.40;;
823;SDS011;373;49.342;8.146;2024-01-07T02:17:21;5.95;;;4.85;;
823;SDS011;373;49.342;8.146;2024-01-07T02:19:48;5.00;;;4.38;;
823;SDS011;373;49.342;8.146;2024-01-07T02:22:15;5.20;;;4.70;;
823;SDS011;373;49.342;8.146;2024-01-07T02:24:43;4.85;;;4.25;;
823;SDS011;373;49.342;8.146;2024-01-07T02:27:10;5.65;;;4.78;;
823;SDS011;373;49.342;8.146;2024-01-07T02:29:37;4.70;;;4.20;;
823;SDS011;373;49.342;8.146;2024-01-07T02:32:05;4.75;;;4.22;;
823;SDS011;373;49.342;8.146;2024-01-07T02:34:32;5.10;;;4.63;;
823;SDS011;373;49.342;8.146;2024-01-07T02:36:59;5.15;;;4.65;;
823;SDS011;373;49.342;8.146;2024-01-07T02:39:26;5.40;;;4.80;;
823;SDS011;373;49.342;8.146;2024-01-07T02:41:55;5.50;;;4.60;;
823;SDS011;373;49.342;8.146;2024-01-07T02:44:22;5.18;;;4.68;;
823;SDS011;373;49.342;8.146;2024-01-07T02:46:49;4.28;;;3.88;;
823;SDS011;373;49.342;8.146;2024-01-07T02:49:16;5.78;;;5.03;;
823;SDS011;373;49.342;8.146;2024-01-07T02:51:43;5.15;;;4.60;;
823;SDS011;373;49.342;8.146;2024-01-07T02:54:15;4.47;;;4.07;;
823;SDS011;373;49.342;8.146;2024-01-07T02:56:42;5.53;;;4.45;;
823;SDS011;373;49.342;8.146;2024-01-07T02:59:10;4.90;;;4.30;;
823;SDS011;373;49.342;8.146;2024-01-07T03:01:37;4.97;;;4.45;;
823;SDS011;373;49.342;8.146;2024-01-07T03:04:06;6.65;;;4.85;;
823;SDS011;373;49.342;8.146;2024-01-07T03:06:33;5.72;;;5.13;;
823;SDS011;373;49.342;8.146;2024-01-07T03:09:00;5.75;;;5.10;;
823;SDS011;373;49.342;8.146;2024-01-07T03:11:28;4.97;;;4.53;;
823;SDS011;373;49.342;8.146;2024-01-07T03:13:55;5.72;;;5.03;;
823;SDS011;373;49.342;8.146;2024-01-07T03:16:24;6.38;;;5.00;;
823;SDS011;373;49.342;8.146;2024-01-07T03:18:52;6.63;;;5.63;;
823;SDS011;373;49.342;8.146;2024-01-07T03:21:20;6.40;;;5.55;;
823;SDS011;373;49.342;8.146;2024-01-07T03:23:48;6.80;;;5.55;;
823;SDS011;373;49.342;8.146;2024-01-07T03:26:16;6.35;;;5.75;;
823;SDS011;373;49.342;8.146;2024-01-07T03:28:44;6.00;;;5.40;;
823;SDS011;373;49.342;8.146;2024-01-07T03:31:12;5.72;;;5.13;;
823;SDS011;373;49.342;8.146;2024-01-07T03:33:41;6.15;;;5.55;;
823;SDS011;373;49.342;8.146;2024-01-07T03:36:09;5.88;;;5.03;;
823;SDS011;373;49.342;8.146;2024-01-07T03:38:38;6.28;;;5.68;;
823;SDS011;373;49.342;8.146;2024-01-07T03:41:06;6.03;;;5.38;;
823;SDS011;373;49.342;8.146;2024-01-07T03:43:33;6.50;;;5.90;;
823;SDS011;373;49.342;8.146;2024-01-07T03:46:00;6.25;;;5.55;;
823;SDS011;373;49.342;8.146;2024-01-07T03:48:26;5.55;;;4.90;;
823;SDS011;373;49.342;8.146;2024-01-07T03:50:55;6.18;;;5.63;;
823;SDS011;373;49.342;8.146;2024-01-07T03:53:22;5.90;;;5.30;;
823;SDS011;373;49.342;8.146;2024-01-07T03:55:49;6.50;;;5.40;;
823;SDS011;373;49.342;8.146;2024-01-07T03:58:16;5.50;;;4.90;;
823;SDS011;373;49.342;8.146;2024-01-07T04:00:43;5.88;;;5.28;;
823;SDS011;373;49.342;8.146;2024-01-07T04:03:10;7.32;;;5.80;;
823;SDS011;373;49.342;8.146;2024-01-07T04:05:37;5.63;;;5.10;;
823;SDS011;373;49.342;8.146;2024-01-07T04:08:05;6.28;;;5.68;;
823;SDS011;373;49.342;8.146;2024-01-07T04:10:35;6.07;;;5.47;;
823;SDS011;373;49.342;8.146;2024-01-07T04:13:02;5.80;;;4.97;;
823;SDS011;373;49.342;8.146;2024-01-07T04:15:30;5.55;;;5.05;;
823;SDS011;373;49.342;8.146;2024-01-07T04:17:59;5.43;;;4.93;;
823;SDS011;373;49.342;8.146;2024-01-07T04:20:27;5.35;;;4.85;;
823;SDS011;373;49.342;8.146;2024-01-07T04:22:54;5.78;;;4.65;;
823;SDS011;373;49.342;8.146;2024-01-07T04:25:23;6.03;;;5.13;;
823;SDS011;373;49.342;8.146;2024-01-07T04:27:50;5.15;;;4.65;;
823;SDS011;373;49.342;8.146;2024-01-07T04:30:17;5.70;;;4.97;;
823;SDS011;373;49.342;8.146;2024-01-07T04:32:44;5.93;;;5.32;;
823;SDS011;373;49.342;8.146;2024-01-07T04:35:11;4.88;;;4.40;;
823;SDS011;373;49.342;8.146;2024-01-07T04:37:38;5.30;;;4.32;;
823;SDS011;373;49.342;8.146;2024-01-07T04:40:06;4.82;;;4.43;;
823;SDS011;373;49.342;8.146;2024-01-07T04:42:35;5.03;;;4.57;;
823;SDS011;373;49.342;8.146;2024-01-07T04:45:02;5.50;;;4.80;;
823;SDS011;373;49.342;8.146;2024-01-07T04:47:30;5.55;;;4.03;;
823;SDS011;373;49.342;8.146;2024-01-07T04:49:59;4.95;;;4.45;;
823;SDS011;373;49.342;8.146;2024-01-07T04:52:27;5.20;;;4.70;;
823;SDS011;373;49.342;8.146;2024-01-07T04:54:54;5.20;;;4.70;;
823;SDS011;373;49.342;8.146;2024-01-07T04:57:21;5.55;;;4.72;;
823;SDS011;373;49.342;8.146;2024-01-07T04:59:50;5.82;;;4.72;;
823;SDS011;373;49.342;8.146;2024-01-07T05:02:17;4.90;;;4.50;;
823;SDS011;373;49.342;8.146;2024-01-07T05:04:45;5.93;;;5.30;;
823;SDS011;373;49.342;8.146;2024-01-07T05:07:12;5.22;;;4.72;;
823;SDS011;373;49.342;8.146;2024-01-07T05:09:39;5.13;;;4.45;;
823;SDS011;373;49.342;8.146;2024-01-07T05:12:06;5.32;;;4.53;;
823;SDS011;373;49.342;8.146;2024-01-07T05:14:34;5.43;;;4.93;;
823;SDS011;373;49.342;8.146;2024-01-07T05:17:03;5.13;;;4.43;;
823;SDS011;373;49.342;8.146;2024-01-07T05:19:30;5.13;;;4.63;;
823;SDS011;373;49.342;8.146;2024-01-07T05:21:58;5.40;;;4.85;;
823;SDS011;373;49.342;8.146;2024-01-07T05:24:25;4.70;;;4.22;;
823;SDS011;373;49.342;8.146;2024-01-07T05:26:52;4.57;;;4.18;;
823;SDS011;373;49.342;8.146;2024-01-07T05:29:19;4.43;;;4.00;;
823;SDS011;373;49.342;8.146;2024-01-07T05:31:47;5.78;;;5.07;;
823;SDS011;373;49.342;8.146;2024-01-07T05:34:15;5.97;;;4.80;;
823;SDS011;373;49.342;8.146;2024-01-07T05:36:42;6.43;;;5.55;;
823;SDS011;373;49.342;8.146;2024-01-07T05:39:10;5.32;;;4.68;;
823;SDS011;373;49.342;8.146;2024-01-07T05:41:37;5.75;;;4.75;;
823;SDS011;373;49.342;8.146;2024-01-07T05:44:06;6.05;;;5.03;;
823;SDS011;373;49.342;8.146;2024-01-07T05:46:33;5.88;;;4.72;;
823;SDS011;373;49.342;8.146;2024-01-07T05:49:00;5.70;;;5.07;;
823;SDS011;373;49.342;8.146;2024-01-07T05:51:28;5.35;;;4.85;;
823;SDS011;373;49.342;8.146;2024-01-07T05:53:55;5.30;;;4.55;;
823;SDS011;373;49.342;8.146;2024-01-07T05:56:22;4.70;;;4.20;;
823;SDS011;373;49.342;8.146;2024-01-07T05:58:50;4.78;;;4.28;;
823;SDS011;373;49.342;8.146;2024-01-07T06:01:18;4.28;;;3.85;;
823;SDS011;373;49.342;8.146;2024-01-07T06:03:46;4.10;;;3.80;;
823;SDS011;373;49.342;8.146;2024-01-07T06:06:13;4.82;;;4.25;;
823;SDS011;373;49.342;8.146;2024-01-07T06:08:43;5.45;;;5.00;;
823;SDS011;373;49.342;8.146;2024-01-07T06:11:10;6.13;;;5.13;;
823;SDS011;373;49.342;8.146;2024-01-07T06:13:43;7.28;;;5.18;;
823;SDS011;373;49.342;8.146;2024-01-07T06:16:11;6.95;;;6.07;;
823;SDS011;373;49.342;8.146;2024-01-07T06:18:38;6.18;;;5.53;;
823;SDS011;373;49.342;8.146;2024-01-07T06:21:05;6.18;;;5.57;;
823;SDS011;373;49.342;8.146;2024-01-07T06:23:32;7.82;;;5.90;;
823;SDS011;373;49.342;8.146;2024-01-07T06:26:04;5.80;;;4.70;;
823;SDS011;373;49.342;8.146;2024-01-07T06:28:31;7.10;;;5.72;;
823;SDS011;373;49.342;8.146;2024-01-07T06:30:58;7.47;;;5.80;;
823;SDS011;373;49.342;8.146;2024-01-07T06:33:26;8.75;;;6.75;;
823;SDS011;373;49.342;8.146;2024-01-07T06:35:53;9.38;;;5.78;;
823;SDS011;373;49.342;8.146;2024-01-07T06:38:20;7.57;;;6.78;;
823;SDS011;373;49.342;8.146;2024-01-07T06:40:47;9.43;;;6.88;;
823;SDS011;373;49.342;8.146;2024-01-07T06:43:15;8.27;;;7.00;;
823;SDS011;373;49.342;8.146;2024-01-07T06:45:42;9.27;;;7.35;;
823;SDS011;373;49.342;8.146;2024-01-07T06:48:10;9.65;;;7.75;;
823;SDS011;373;49.342;8.146;2024-01-07T06:50:37;11.23;;;7.70;;
823;SDS011;373;49.342;8.146;2024-01-07T06:53:04;8.40;;;6.95;;
823;SDS011;373;49.342;8.146;2024-01-07T06:55:31;9.30;;;8.23;;
823;SDS011;373;49.342;8.146;2024-01-07T06:57:58;8.98;;;7.22;;
823;SDS011;373;49.342;8.146;2024-01-07T07:00:26;9.00;;;7.13;;
823;SDS011;373;49.342;8.146;2024-01-07T07:02:53;10.05;;;7.30;;
823;SDS011;373;49.342;8.146;2024-01-07T07:05:20;8.63;;;6.95;;
823;SDS011;373;49.342;8.146;2024-01-07T07:07:47;8.02;;;7.22;;
823;SDS011;373;49.342;8.146;2024-01-07T07:10:14;7.53;;;6.70;;
823;SDS011;373;49.342;8.146;2024-01-07T07:12:41;9.00;;;7.40;;
823;SDS011;373;49.342;8.146;2024-01-07T07:15:08;9.02;;;6.80;;
823;SDS011;373;49.342;8.146;2024-01-07T07:17:37;7.72;;;6.90;;
823;SDS011;373;49.342;8.146;2024-01-07T07:20:05;8.50;;;7.28;;
823;SDS011;373;49.342;8.146;2024-01-07T07:22:33;10.10;;;7.30;;
823;SDS011;373;49.342;8.146;2024-01-07T07:25:00;8.07;;;7.25;;
823;SDS011;373;49.342;8.146;2024-01-07T07:27:27;8.07;;;7.18;;
823;SDS011;373;49.342;8.146;2024-01-07T07:29:54;8.55;;;7.00;;
823;SDS011;373;49.342;8.146;2024-01-07T07:32:21;8.07;;;7.22;;
823;SDS011;373;49.342;8.146;2024-01-07T07:34:50;9.20;;;7.72;;
823;SDS011;373;49.342;8.146;2024-01-07T07:37:17;7.28;;;6.57;;
823;SDS011;373;49.342;8.146;2024-01-07T07:39:44;8.65;;;6.78;;
823;SDS011;373;49.342;8.146;2024-01-07T07:42:11;7.63;;;6.72;;
823;SDS011;373;49.342;8.146;2024-01-07T07:44:38;10.32;;;7.60;;
823;SDS011;373;49.342;8.146;2024-01-07T07:47:05;8.27;;;7.40;;
823;SDS011;373;49.342;8.146;2024-01-07T07:49:33;9.23;;;8.00;;
823;SDS011;373;49.342;8.146;2024-01-07T07:52:02;9.45;;;8.27;;
823;SDS011;373;49.342;8.146;2024-01-07T07:54:29;9.80;;;8.80;;
823;SDS011;373;49.342;8.146;2024-01-07T07:56:56;11.80;;;9.25;;
823;SDS011;373;49.342;8.146;2024-01-07T07:59:23;11.73;;;8.93;;
823;SDS011;373;49.342;8.146;2024-01-07T08:01:50;9.82;;;8.18;;
823;SDS011;373;49.342;8.146;2024-01-07T08:04:18;9.65;;;8.63;;
823;SDS011;373;49.342;8.146;2024-01-07T08:06:45;10.10;;;8.48;;
823;SDS011;373;49.342;8.146;2024-01-07T08:09:13;9.60;;;7.88;;
823;SDS011;373;49.342;8.146;2024-01-07T08:11:41;9.07;;;8.02;;
823;SDS011;373;49.342;8.146;2024-01-07T08:14:08;9.80;;;8.40;;
823;SDS011;373;49.342;8.146;2024-01-07T08:16:35;9.70;;;8.77;;
823;SDS011;373;49.342;8.146;2024-01-07T08:19:02;10.60;;;9.65;;
823;SDS011;373;49.342;8.146;2024-01-07T08:21:29;10.02;;;9.02;;
823;SDS011;373;49.342;8.146;2024-01-07T08:23:56;9.77;;;8.68;;
823;SDS011;373;49.342;8.146;2024-01-07T08:26:24;10.45;;;9.40;;
823;SDS011;373;49.342;8.146;2024-01-07T08:28:51;10.18;;;9.00;;
823;SDS011;373;49.342;8.146;2024-01-07T08:31:18;11.50;;;8.75;;
823;SDS011;373;49.342;8.146;2024-01-07T08:33:45;11.57;;;10.30;;
823;SDS011;373;49.342;8.146;2024-01-07T08:36:12;11.20;;;10.07;;
823;SDS011;373;49.342;8.146;2024-01-07T08:38:39;11.48;;;9.73;;
823;SDS011;373;49.342;8.146;2024-01-07T08:41:06;12.25;;;10.70;;
823;SDS011;373;49.342;8.146;2024-01-07T08:43:35;11.55;;;9.77;;
823;SDS011;373;49.342;8.146;2024-01-07T08:46:03;13.48;;;10.85;;
823;SDS011;373;49.342;8.146;2024-01-07T08:48:30;12.98;;;10.55;;
823;SDS011;373;49.342;8.146;2024-01-07T08:50:58;10.70;;;9.60;;
823;SDS011;373;49.342;8.146;2024-01-07T08:53:25;11.65;;;9.75;;
823;SDS011;373;49.342;8.146;2024-01-07T08:55:52;13.35;;;10.85;;
823;SDS011;373;49.342;8.146;2024-01-07T08:58:19;10.40;;;9.27;;
823;SDS011;373;49.342;8.146;2024-01-07T09:00:48;11.35;;;10.15;;
823;SDS011;373;49.342;8.146;2024-01-07T09:03:15;10.57;;;9.27;;
823;SDS011;373;49.342;8.146;2024-01-07T09:05:41;11.88;;;10.02;;
823;SDS011;373;49.342;8.146;2024-01-07T09:08:08;10.48;;;8.77;;
823;SDS011;373;49.342;8.146;2024-01-07T09:10:36;10.20;;;8.82;;
823;SDS011;373;49.342;8.146;2024-01-07T09:13:05;10.48;;;9.38;;
823;SDS011;373;49.342;8.146;2024-01-07T09:15:32;11.40;;;9.70;;
823;SDS011;373;49.342;8.146;2024-01-07T09:18:00;10.93;;;9.82;;
823;SDS011;373;49.342;8.146;2024-01-07T09:20:28;11.77;;;9.82;;
823;SDS011;373;49.342;8.146;2024-01-07T09:22:55;11.60;;;9.63;;
823;SDS011;373;49.342;8.146;2024-01-07T09:25:22;11.45;;;10.23;;
823;SDS011;373;49.342;8.146;2024-01-07T09:27:49;10.77;;;9.52;;
823;SDS011;373;49.342;8.146;2024-01-07T09:30:16;10.48;;;9.40;;
823;SDS011;373;49.342;8.146;2024-01-07T09:32:43;12.63;;;10.10;;
823;SDS011;373;49.342;8.146;2024-01-07T09:35:12;13.07;;;9.93;;
823;SDS011;373;49.342;8.146;2024-01-07T09:37:40;10.90;;;9.70;;
823;SDS011;373;49.342;8.146;2024-01-07T09:40:08;11.75;;;10.00;;
823;SDS011;373;49.342;8.146;2024-01-07T09:42:36;12.00;;;9.85;;
823;SDS011;373;49.342;8.146;2024-01-07T09:45:13;12.05;;;10.70;;
823;SDS011;373;49.342;8.146;2024-01-07T09:47:44;10.38;;;9.27;;
823;SDS011;373;49.342;8.146;2024-01-07T09:50:13;10.77;;;9.68;;
823;SDS011;373;49.342;8.146;2024-01-07T09:52:42;11.98;;;10.10;;
823;SDS011;373;49.342;8.146;2024-01-07T09:55:15;12.75;;;10.45;;
823;SDS011;373;49.342;8.146;2024-01-07T09:57:51;12.90;;;10.73;;
823;SDS011;373;49.342;8.146;2024-01-07T10:00:21;11.40;;;10.02;;
823;SDS011;373;49.342;8.146;2024-01-07T10:02:48;9.55;;;8.52;;
823;SDS011;373;49.342;8.146;2024-01-07T10:05:20;9.48;;;8.48;;
823;SDS011;373;49.342;8.146;2024-01-07T10:07:47;9.55;;;8.55;;
823;SDS011;373;49.342;8.146;2024-01-07T10:10:15;11.48;;;9.30;;
823;SDS011;373;49.342;8.146;2024-01-07T10:12:43;9.77;;;8.77;;
823;SDS011;373;49.342;8.146;2024-01-07T10:15:11;9.70;;;8.63;;
823;SDS011;373;49.342;8.146;2024-01-07T10:17:39;10.82;;;8.65;;
823;SDS011;373;49.342;8.146;2024-01-07T10:20:08;12.27;;;9.32;;
823;SDS011;373;49.342;8.146;2024-01-07T10:22:40;9.43;;;8.10;;
823;SDS011;373;49.342;8.146;2024-01-07T10:25:12;9.73;;;7.85;;
823;SDS011;373;49.342;8.146;2024-01-07T10:27:44;7.53;;;6.72;;
823;SDS011;373;49.342;8.146;2024-01-07T10:30:11;7.60;;;6.65;;
823;SDS011;373;49.342;8.146;2024-01-07T10:32:39;7.70;;;6.60;;
823;SDS011;373;49.342;8.146;2024-01-07T10:35:11;7.78;;;6.78;;
823;SDS011;373;49.342;8.146;2024-01-07T10:37:40;7.90;;;7.15;;
823;SDS011;373;49.342;8.146;2024-01-07T10:40:08;9.00;;;7.15;;
823;SDS011;373;49.342;8.146;2024-01-07T10:42:38;7.05;;;6.35;;
823;SDS011;373;49.342;8.146;2024-01-07T10:45:05;6.90;;;6.13;;
823;SDS011;373;49.342;8.146;2024-01-07T10:47:33;5.72;;;5.22;;
823;SDS011;373;49.342;8.146;2024-01-07T10:50:03;6.05;;;5.47;;
823;SDS011;373;49.342;8.146;2024-01-07T10:52:30;6.72;;;6.03;;
823;SDS011;373;49.342;8.146;2024-01-07T10:55:03;7.80;;;6.35;;
823;SDS011;373;49.342;8.146;2024-01-07T10:57:38;7.15;;;6.45;;
823;SDS011;373;49.342;8.146;2024-01-07T11:00:10;7.15;;;6.22;;
823;SDS011;373;49.342;8.146;2024-01-07T11:02:50;7.90;;;6.60;;
823;SDS011;373;49.342;8.146;2024-01-07T11:05:25;6.65;;;5.90;;
823;SDS011;373;49.342;8.146;2024-01-07T11:07:58;7.25;;;6.00;;
823;SDS011;373;49.342;8.146;2024-01-07T11:10:35;6.90;;;6.20;;
823;SDS011;373;49.342;8.146;2024-01-07T11:13:08;6.50;;;5.68;;
823;SDS011;373;49.342;8.146;2024-01-07T11:15:50;7.85;;;6.07;;
823;SDS011;373;49.342;8.146;2024-01-07T11:18:18;6.95;;;6.05;;
823;SDS011;373;49.342;8.146;2024-01-07T11:20:45;6.25;;;5.43;;
823;SDS011;373;49.342;8.146;2024-01-07T11:23:25;6.82;;;6.05;;
823;SDS011;373;49.342;8.146;2024-01-07T11:25:55;6.97;;;6.28;;
823;SDS011;373;49.342;8.146;2024-01-07T11:31:09;6.57;;;5.97;;
823;SDS011;373;49.342;8.146;2024-01-07T11:33:36;6.55;;;5.88;;
823;SDS011;373;49.342;8.146;2024-01-07T11:36:04;6.80;;;6.10;;
823;SDS011;373;49.342;8.146;2024-01-07T11:38:33;6.88;;;6.18;;
823;SDS011;373;49.342;8.146;2024-01-07T11:41:01;6.35;;;5.57;;
823;SDS011;373;49.342;8.146;2024-01-07T11:43:30;6.45;;;5.80;;
823;SDS011;373;49.342;8.146;2024-01-07T11:45:59;5.80;;;5.20;;
823;SDS011;373;49.342;8.146;2024-01-07T11:48:26;6.05;;;5.50;;
823;SDS011;373;49.342;8.146;2024-01-07T11:50:53;6.20;;;5.60;;
823;SDS011;373;49.342;8.146;2024-01-07T11:53:20;5.68;;;5.15;;
823;SDS011;373;49.342;8.146;2024-01-07T11:55:47;6.05;;;5.45;;
823;SDS011;373;49.342;8.146;2024-01-07T11:58:16;5.70;;;4.97;;
823;SDS011;373;49.342;8.146;2024-01-07T12:00:43;6.05;;;5.45;;
823;SDS011;373;49.342;8.146;2024-01-07T12:03:10;8.35;;;6.22;;
823;SDS011;373;49.342;8.146;2024-01-07T12:05:37;7.43;;;5.97;;
823;SDS011;373;49.342;8.146;2024-01-07T12:08:05;6.00;;;5.40;;
823;SDS011;373;49.342;8.146;2024-01-07T12:10:33;5.60;;;5.00;;
823;SDS011;373;49.342;8.146;2024-01-07T12:13:00;5.93;;;4.85;;
823;SDS011;373;49.342;8.146;2024-01-07T12:15:30;7.57;;;5.72;;
823;SDS011;373;49.342;8.146;2024-01-07T12:17:58;5.93;;;5.43;;
823;SDS011;373;49.342;8.146;2024-01-07T12:20:27;5.68;;;5.07;;
823;SDS011;373;49.342;8.146;2024-01-07T12:22:57;6.00;;;5.40;;
823;SDS011;373;49.342;8.146;2024-01-07T12:25:31;6.93;;;5.82;;
823;SDS011;373;49.342;8.146;2024-01-07T12:27:58;6.38;;;5.78;;
823;SDS011;373;49.342;8.146;2024-01-07T12:30:25;5.82;;;5.22;;
823;SDS011;373;49.342;8.146;2024-01-07T12:32:54;6.53;;;5.78;;
823;SDS011;373;49.342;8.146;2024-01-07T12:35:24;6.80;;;5.47;;
823;SDS011;373;49.342;8.146;2024-01-07T12:37:52;7.65;;;6.03;;
823;SDS011;373;49.342;8.146;2024-01-07T12:40:19;7.25;;;5.63;;
823;SDS011;373;49.342;8.146;2024-01-07T12:42:46;6.53;;;5.85;;
823;SDS011;373;49.342;8.146;2024-01-07T12:45:14;6.82;;;6.13;;
823;SDS011;373;49.342;8.146;2024-01-07T12:47:41;6.75;;;5.35;;
823;SDS011;373;49.342;8.146;2024-01-07T12:50:10;7.63;;;6.53;;
823;SDS011;373;49.342;8.146;2024-01-07T12:52:38;8.23;;;7.03;;
823;SDS011;373;49.342;8.146;2024-01-07T12:55:06;6.88;;;6.22;;
823;SDS011;373;49.342;8.146;2024-01-07T12:57:33;7.95;;;6.90;;
823;SDS011;373;49.342;8.146;2024-01-07T13:00:01;7.10;;;6.40;;
823;SDS011;373;49.342;8.146;2024-01-07T13:02:31;7.63;;;6.82;;
823;SDS011;373;49.342;8.146;2024-01-07T13:05:00;6.97;;;6.00;;
823;SDS011;373;49.342;8.146;2024-01-07T13:07:29;7.38;;;6.30;;
823;SDS011;373;49.342;8.146;2024-01-07T13:09:56;6.15;;;5.55;;
823;SDS011;373;49.342;8.146;2024-01-07T13:12:23;7.00;;;6.38;;
823;SDS011;373;49.342;8.146;2024-01-07T13:14:51;8.35;;;7.47;;
823;SDS011;373;49.342;8.146;2024-01-07T13:17:18;8.70;;;7.10;;
823;SDS011;373;49.342;8.146;2024-01-07T13:19:45;8.35;;;6.82;;
823;SDS011;373;49.342;8.146;2024-01-07T13:22:13;7.35;;;6.50;;
823;SDS011;373;49.342;8.146;2024-01-07T13:24:41;7.80;;;6.88;;
823;SDS011;373;49.342;8.146;2024-01-07T13:27:08;8.68;;;6.97;;
823;SDS011;373;49.342;8.146;2024-01-07T13:29:35;12.10;;;7.30;;
823;SDS011;373;49.342;8.146;2024-01-07T13:32:02;8.05;;;6.97;;
823;SDS011;373;49.342;8.146;2024-01-07T13:34:30;8.07;;;6.75;;
823;SDS011;373;49.342;8.146;2024-01-07T13:36:57;8.13;;;7.05;;
823;SDS011;373;49.342;8.146;2024-01-07T13:39:24;8.30;;;7.03;;
823;SDS011;373;49.342;8.146;2024-01-07T13:41:52;7.70;;;6.90;;
823;SDS011;373;49.342;8.146;2024-01-07T13:44:19;7.97;;;7.10;;
823;SDS011;373;49.342;8.146;2024-01-07T13:46:46;8.18;;;6.68;;
823;SDS011;373;49.342;8.146;2024-01-07T13:49:14;7.75;;;6.45;;
823;SDS011;373;49.342;8.146;2024-01-07T13:51:41;8.10;;;5.55;;
823;SDS011;373;49.342;8.146;2024-01-07T13:54:08;7.20;;;5.57;;
823;SDS011;373;49.342;8.146;2024-01-07T13:56:38;8.30;;;6.65;;
823;SDS011;373;49.342;8.146;2024-01-07T13:59:09;7.22;;;5.47;;
823;SDS011;373;49.342;8.146;2024-01-07T14:01:36;7.43;;;5.60;;
823;SDS011;373;49.342;8.146;2024-01-07T14:04:04;5.72;;;4.68;;
823;SDS011;373;49.342;8.146;2024-01-07T14:06:31;7.03;;;5.40;;
823;SDS011;373;49.342;8.146;2024-01-07T14:08:58;7.15;;;6.18;;
823;SDS011;373;49.342;8.146;2024-01-07T14:11:25;8.45;;;5.65;;
823;SDS011;373;49.342;8.146;2024-01-07T14:13:53;7.55;;;6.38;;
823;SDS011;373;49.342;8.146;2024-01-07T14:16:21;5.70;;;4.78;;
823;SDS011;373;49.342;8.146;2024-01-07T14:18:49;7.72;;;5.65;;
823;SDS011;373;49.342;8.146;2024-01-07T14:21:17;7.95;;;5.72;;
823;SDS011;373;49.342;8.146;2024-01-07T14:23:44;5.75;;;5.15;;
823;SDS011;373;49.342;8.146;2024-01-07T14:26:11;6.57;;;5.53;;
823;SDS011;373;49.342;8.146;2024-01-07T14:28:38;7.55;;;5.65;;
823;SDS011;373;49.342;8.146;2024-01-07T14:31:05;7.38;;;6.22;;
823;SDS011;373;49.342;8.146;2024-01-07T14:33:33;7.25;;;5.40;;
823;SDS011;373;49.342;8.146;2024-01-07T14:36:02;8.80;;;6.45;;
823;SDS011;373;49.342;8.146;2024-01-07T14:38:29;7.70;;;6.90;;
823;SDS011;373;49.342;8.146;2024-01-07T14:40:56;6.40;;;4.90;;
823;SDS011;373;49.342;8.146;2024-01-07T14:43:23;9.40;;;6.63;;
823;SDS011;373;49.342;8.146;2024-01-07T14:45:51;7.47;;;5.72;;
823;SDS011;373;49.342;8.146;2024-01-07T14:48:18;6.07;;;5.30;;
823;SDS011;373;49.342;8.146;2024-01-07T14:50:48;7.32;;;5.65;;
823;SDS011;373;49.342;8.146;2024-01-07T14:53:16;7.70;;;5.72;;
823;SDS011;373;49.342;8.146;2024-01-07T14:55:43;6.45;;;5.53;;
823;SDS011;373;49.342;8.146;2024-01-07T14:58:11;8.48;;;6.57;;
823;SDS011;373;49.342;8.146;2024-01-07T15:00:38;7.95;;;6.53;;
823;SDS011;373;49.342;8.146;2024-01-07T15:03:05;7.30;;;6.05;;
823;SDS011;373;49.342;8.146;2024-01-07T15:05:33;7.72;;;6.50;;
823;SDS011;373;49.342;8.146;2024-01-07T15:08:02;7.80;;;6.15;;
823;SDS011;373;49.342;8.146;2024-01-07T15:10:29;6.93;;;5.72;;
823;SDS011;373;49.342;8.146;2024-01-07T15:12:57;5.93;;;5.25;;
823;SDS011;373;49.342;8.146;2024-01-07T15:15:24;7.30;;;5.50;;
823;SDS011;373;49.342;8.146;2024-01-07T15:17:55;7.10;;;5.93;;
823;SDS011;373;49.342;8.146;2024-01-07T15:20:22;6.90;;;5.80;;
823;SDS011;373;49.342;8.146;2024-01-07T15:22:49;8.73;;;6.22;;
823;SDS011;373;49.342;8.146;2024-01-07T15:25:18;8.40;;;6.45;;
823;SDS011;373;49.342;8.146;2024-01-07T15:27:46;7.05;;;6.35;;
823;SDS011;373;49.342;8.146;2024-01-07T15:30:13;7.43;;;6.32;;
823;SDS011;373;49.342;8.146;2024-01-07T15:32:40;6.75;;;5.55;;
823;SDS011;373;49.342;8.146;2024-01-07T15:35:07;6.22;;;5.50;;
823;SDS011;373;49.342;8.146;2024-01-07T15:37:34;6.70;;;5.57;;
823;SDS011;373;49.342;8.146;2024-01-07T15:40:01;7.20;;;6.15;;
823;SDS011;373;49.342;8.146;2024-01-07T15:42:30;7.90;;;5.80;;
823;SDS011;373;49.342;8.146;2024-01-07T15:44:57;7.35;;;6.13;;
823;SDS011;373;49.342;8.146;2024-01-07T15:47:25;6.63;;;5.65;;
823;SDS011;373;49.342;8.146;2024-01-07T15:49:52;6.40;;;4.75;;